Time;durP1;ratioP1;P1;durP2;ratioP2;P2;SDS_P1;SDS_P2;PMS_P1;PMS_P2;Temp;Humidity;BMP_temperature;BMP_pressure;BME280_temperature;BME280_humidity;BME280_pressure;Samples;Min_cycle;Max_cycle;Signal;HPM_P1;HPM_P2
2021/12/06 00:01:09;;;;;;;55.20;24.95;;;;;;;1.10;100.00;99066.63;5072532;28;20079;-74
2021/12/06 00:03:43;;;;;;;53.13;25.45;;;;;;;1.02;100.00;99068.69;5072981;28;20513;-74
2021/12/06 00:06:22;;;;;;;53.72;25.27;;;;;;;1.07;100.00;99079.91;5073457;28;20080;-74
2021/12/06 00:08:51;;;;;;;52.72;24.40;;;;;;;1.02;100.00;99077.44;5072800;28;20078;-76
2021/12/06 00:11:19;;;;;;;52.75;24.40;;;;;;;1.18;100.00;99095.22;5072971;28;20106;-76
2021/12/06 00:13:49;;;;;;;56.40;25.73;;;;;;;1.18;100.00;99108.34;5073680;28;20047;-75
2021/12/06 00:16:22;;;;;;;50.22;23.65;;;;;;;1.12;100.00;99104.19;5073437;28;20036;-76
2021/12/06 00:18:52;;;;;;;48.33;23.15;;;;;;;1.17;100.00;99097.00;5073667;28;20037;-75
2021/12/06 00:21:24;;;;;;;46.92;23.70;;;;;;;1.15;100.00;99104.91;5072193;28;20037;-76
2021/12/06 00:23:52;;;;;;;50.25;22.85;;;;;;;1.26;100.00;99101.03;5073573;28;20037;-76
2021/12/06 00:26:21;;;;;;;50.42;22.45;;;;;;;1.23;100.00;99098.50;5072809;28;20115;-76
2021/12/06 00:28:56;;;;;;;51.22;23.80;;;;;;;1.24;100.00;99097.56;5073341;28;20052;-76
2021/12/06 00:31:31;;;;;;;51.50;22.25;;;;;;;1.14;100.00;99100.56;5073137;28;20037;-75
2021/12/06 00:34:03;;;;;;;48.17;23.42;;;;;;;1.18;100.00;99092.59;5073091;28;20076;-74
2021/12/06 00:36:37;;;;;;;44.75;21.55;;;;;;;1.21;100.00;99088.06;5073035;28;20037;-76
2021/12/06 00:39:08;;;;;;;47.58;22.58;;;;;;;1.25;100.00;99097.50;5073423;28;20064;-76
2021/12/06 00:41:37;;;;;;;47.95;22.40;;;;;;;1.04;100.00;99096.59;5072613;28;20123;-76
2021/12/06 00:44:07;;;;;;;42.10;19.65;;;;;;;1.18;100.00;99103.09;5073308;28;20402;-76
2021/12/06 00:46:37;;;;;;;41.30;21.50;;;;;;;1.18;100.00;99093.44;5072897;28;20045;-76
2021/12/06 00:49:06;;;;;;;43.25;21.67;;;;;;;1.14;100.00;99100.56;5072994;28;20036;-76
2021/12/06 00:51:40;;;;;;;47.83;21.77;;;;;;;1.18;100.00;99093.44;5072997;28;20442;-76
2021/12/06 00:54:10;;;;;;;42.63;20.88;;;;;;;1.20;100.00;99101.25;5073191;28;20044;-73
2021/12/06 00:56:39;;;;;;;42.28;20.83;;;;;;;1.18;100.00;99113.59;5072877;28;20052;-75
2021/12/06 00:59:07;;;;;;;42.38;20.70;;;;;;;1.24;100.00;99110.72;5073036;28;20087;-75
2021/12/06 01:01:36;;;;;;;40.60;20.45;;;;;;;1.17;100.00;99106.66;5072610;28;20067;-74
2021/12/06 01:04:05;;;;;;;41.03;20.50;;;;;;;1.24;100.00;99105.47;5072956;28;20036;-75
2021/12/06 01:06:34;;;;;;;38.42;20.67;;;;;;;1.09;100.00;99118.31;5072362;28;20044;-75
2021/12/06 01:09:04;;;;;;;41.53;20.50;;;;;;;1.21;100.00;99118.72;5073257;28;20123;-75
2021/12/06 01:11:33;;;;;;;40.42;19.88;;;;;;;1.30;100.00;99120.97;5072659;28;20056;-75
2021/12/06 01:14:01;;;;;;;38.63;19.77;;;;;;;1.24;100.00;99126.47;5072861;28;20044;-75
2021/12/06 01:16:29;;;;;;;41.05;20.30;;;;;;;1.28;100.00;99120.19;5072286;28;20032;-75
2021/12/06 01:18:58;;;;;;;38.35;19.02;;;;;;;1.24;100.00;99113.34;5072773;28;20409;-75
2021/12/06 01:21:38;;;;;;;37.70;19.67;;;;;;;1.23;100.00;99103.75;5072108;28;20049;-79
2021/12/06 01:24:09;;;;;;;38.85;19.75;;;;;;;1.20;100.00;99096.00;5073023;28;20090;-78
2021/12/06 01:26:58;;;;;;;37.90;18.17;;;;;;;1.21;100.00;99088.06;5072524;28;20094;-78
2021/12/06 01:29:47;;;;;;;37.00;18.02;;;;;;;1.26;100.00;99083.50;5072549;28;20045;-78
2021/12/06 01:32:26;;;;;;;36.15;18.02;;;;;;;1.27;100.00;99081.72;5072919;28;20097;-77
2021/12/06 01:40:27;;;;;;;35.38;18.23;;;;;;;1.32;100.00;99085.00;5076375;28;20047;-72
2021/12/06 01:42:56;;;;;;;39.03;18.75;;;;;;;1.29;100.00;99074.63;5076339;28;20032;-72
2021/12/06 01:45:24;;;;;;;36.45;19.23;;;;;;;1.13;100.00;99085.72;5074551;28;20083;-73
2021/12/06 01:47:52;;;;;;;31.42;17.48;;;;;;;1.23;100.00;99082.75;5076313;28;20064;-72
2021/12/06 01:50:24;;;;;;;34.92;18.30;;;;;;;1.22;100.00;99078.41;5076290;28;20048;-72
2021/12/06 01:52:56;;;;;;;33.17;16.98;;;;;;;1.21;100.00;99082.81;5076073;28;20049;-76
2021/12/06 01:55:28;;;;;;;31.25;16.27;;;;;;;1.24;100.00;99077.41;5075704;28;20044;-77
2021/12/06 01:57:58;;;;;;;33.42;17.20;;;;;;;1.28;100.00;99084.28;5076448;28;20474;-78
2021/12/06 02:00:33;;;;;;;32.25;17.30;;;;;;;1.31;100.00;99088.53;5075843;28;20051;-79
2021/12/06 02:03:02;;;;;;;34.40;17.67;;;;;;;1.27;100.00;99082.56;5076224;28;20049;-75
2021/12/06 02:05:31;;;;;;;33.13;18.30;;;;;;;1.41;100.00;99085.47;5075723;28;20040;-74
2021/12/06 02:08:00;;;;;;;34.97;17.70;;;;;;;1.42;100.00;99095.06;5075975;28;20452;-75
2021/12/06 02:10:30;;;;;;;30.02;17.45;;;;;;;1.50;100.00;99093.88;5074804;28;20053;-76
2021/12/06 02:13:00;;;;;;;31.25;17.80;;;;;;;1.40;100.00;99082.91;5075908;28;20048;-76
2021/12/06 02:15:39;;;;;;;28.75;15.45;;;;;;;1.36;100.00;99079.56;5075528;28;20470;-76
2021/12/06 02:18:14;;;;;;;32.80;18.30;;;;;;;1.37;100.00;99077.78;5076365;28;20371;-76
2021/12/06 02:20:48;;;;;;;34.22;18.00;;;;;;;1.41;100.00;99068.84;5075504;28;20044;-76
2021/12/06 02:23:19;;;;;;;32.60;16.75;;;;;;;1.43;100.00;99061.75;5075494;28;20040;-76
2021/12/06 02:25:47;;;;;;;32.00;17.63;;;;;;;1.39;100.00;99049.66;5075467;28;20508;-76
2021/12/06 02:28:15;;;;;;;33.60;17.88;;;;;;;1.43;100.00;99041.56;5075487;28;20128;-76
2021/12/06 02:30:44;;;;;;;35.22;19.40;;;;;;;1.44;100.00;99048.53;5075337;28;20041;-76
2021/12/06 02:33:13;;;;;;;30.42;17.70;;;;;;;1.41;100.00;99063.59;5074262;28;20048;-76
2021/12/06 02:35:43;;;;;;;31.40;16.58;;;;;;;1.48;100.00;99067.69;5075189;28;20050;-76
2021/12/06 02:38:12;;;;;;;32.78;17.95;;;;;;;1.56;100.00;99064.72;5074977;28;20075;-76
2021/12/06 02:40:42;;;;;;;30.30;16.52;;;;;;;1.53;100.00;99067.47;5075169;28;20040;-76
2021/12/06 02:43:11;;;;;;;30.30;16.73;;;;;;;1.42;100.00;99070.56;5075533;28;20457;-76
2021/12/06 02:45:40;;;;;;;32.15;17.52;;;;;;;1.56;100.00;99078.72;5074288;28;20094;-77
2021/12/06 02:48:11;;;;;;;31.27;17.42;;;;;;;1.51;100.00;99067.53;5075321;28;20044;-76
2021/12/06 02:50:44;;;;;;;29.00;16.40;;;;;;;1.51;100.00;99069.31;5074988;28;20050;-76
2021/12/06 02:53:12;;;;;;;33.70;17.37;;;;;;;1.66;100.00;99073.94;5075463;28;20048;-76
2021/12/06 02:55:43;;;;;;;30.50;16.88;;;;;;;1.61;100.00;99081.16;5074503;28;20751;-77
2021/12/06 02:58:17;;;;;;;30.33;16.17;;;;;;;1.72;100.00;99082.38;5073620;28;20490;-77
2021/12/06 03:00:49;;;;;;;29.15;15.73;;;;;;;1.63;100.00;99095.94;5074822;28;20468;-77
2021/12/06 03:03:18;;;;;;;29.98;16.02;;;;;;;1.68;100.00;99096.59;5075128;28;20064;-77
2021/12/06 03:05:49;;;;;;;32.17;17.55;;;;;;;1.50;100.00;99091.25;5074591;28;20053;-76
2021/12/06 03:08:36;;;;;;;29.98;16.13;;;;;;;1.54;100.00;99091.06;5073801;28;20064;-76
2021/12/06 03:11:09;;;;;;;29.02;14.70;;;;;;;1.57;100.00;99090.94;5074956;28;20040;-76
2021/12/06 03:13:38;;;;;;;29.17;15.65;;;;;;;1.54;100.00;99091.06;5074375;28;20055;-76
2021/12/06 03:16:06;;;;;;;27.48;15.93;;;;;;;1.58;100.00;99094.44;5073179;28;20049;-76
2021/12/06 03:18:35;;;;;;;28.38;15.75;;;;;;;1.50;100.00;99089.47;5074110;28;20553;-76
2021/12/06 03:21:03;;;;;;;26.95;15.35;;;;;;;1.42;100.00;99087.16;5074456;28;20113;-76
2021/12/06 03:23:32;;;;;;;25.98;14.27;;;;;;;1.47;100.00;99083.50;5074374;28;20076;-77
2021/12/06 03:26:01;;;;;;;25.02;14.70;;;;;;;1.48;100.00;99091.31;5074631;28;20482;-73
2021/12/06 03:28:36;;;;;;;23.90;13.20;;;;;;;1.43;100.00;99088.88;5074313;28;20447;-78
2021/12/06 03:31:06;;;;;;;25.38;13.60;;;;;;;1.47;100.00;99100.13;5074707;28;20044;-74
2021/12/06 03:33:35;;;;;;;23.45;13.25;;;;;;;1.60;100.00;99095.22;5074118;28;20049;-74
2021/12/06 03:36:06;;;;;;;25.08;13.88;;;;;;;1.58;100.00;99107.56;5074090;28;20049;-75
2021/12/06 03:38:36;;;;;;;21.65;12.52;;;;;;;1.73;100.00;99101.66;5073958;28;20067;-75
2021/12/06 03:41:04;;;;;;;23.63;13.55;;;;;;;1.68;100.00;99109.75;5074285;28;20465;-74
2021/12/06 03:43:37;;;;;;;23.45;13.60;;;;;;;1.77;100.00;99110.28;5073524;28;20090;-76
2021/12/06 03:46:06;;;;;;;25.13;13.30;;;;;;;1.73;100.00;99122.69;5074199;28;20045;-74
2021/12/06 03:48:34;;;;;;;22.13;12.50;;;;;;;1.80;100.00;99120.66;5073710;28;20040;-75
2021/12/06 03:51:03;;;;;;;21.75;11.82;;;;;;;1.79;100.00;99108.44;5074103;28;20040;-75
2021/12/06 03:53:31;;;;;;;22.42;12.43;;;;;;;1.89;100.00;99112.38;5073935;28;20394;-79
2021/12/06 03:56:01;;;;;;;20.15;12.23;;;;;;;1.73;100.00;99101.66;5073076;28;20047;-78
2021/12/06 03:58:29;;;;;;;23.17;12.55;;;;;;;1.73;100.00;99097.25;5073277;28;20041;-75
2021/12/06 04:01:00;;;;;;;21.63;11.82;;;;;;;1.68;100.00;99088.72;5073907;28;20045;-76
2021/12/06 04:03:32;;;;;;;23.40;13.60;;;;;;;1.59;100.00;99091.72;5073580;28;20063;-76
2021/12/06 04:06:03;;;;;;;20.77;11.95;;;;;;;1.67;100.00;99096.66;5073923;28;20067;-75
2021/12/06 04:08:31;;;;;;;22.58;12.90;;;;;;;1.55;100.00;99097.19;5073543;28;20045;-76
2021/12/06 04:10:59;;;;;;;21.48;12.43;;;;;;;1.55;100.00;99091.94;5073776;28;20105;-75
2021/12/06 04:13:28;;;;;;;21.70;12.77;;;;;;;1.62;100.00;99098.63;5073648;28;20049;-75
2021/12/06 04:15:58;;;;;;;19.48;12.40;;;;;;;1.62;100.00;99093.38;5073430;28;20044;-75
2021/12/06 04:18:27;;;;;;;20.65;12.07;;;;;;;1.75;100.00;99098.97;5073540;28;20044;-77
2021/12/06 04:20:58;;;;;;;21.45;12.20;;;;;;;1.66;100.00;99103.72;5072870;28;20489;-75
2021/12/06 04:23:27;;;;;;;22.58;12.88;;;;;;;1.65;100.00;99104.63;5073393;28;20051;-76
2021/12/06 04:25:55;;;;;;;22.40;12.95;;;;;;;1.71;100.00;99109.59;5073181;28;20437;-77
2021/12/06 04:28:24;;;;;;;21.20;12.07;;;;;;;1.85;100.00;99110.81;5073431;28;20420;-77
2021/12/06 04:30:52;;;;;;;21.70;12.57;;;;;;;1.81;100.00;99110.06;5072766;28;20098;-75
2021/12/06 04:33:22;;;;;;;21.73;13.00;;;;;;;1.88;100.00;99100.16;5073176;28;20036;-76
2021/12/06 04:35:50;;;;;;;21.48;12.93;;;;;;;1.83;100.00;99102.97;5073290;28;20094;-76
2021/12/06 04:38:21;;;;;;;22.90;13.48;;;;;;;1.86;100.00;99108.13;5072747;28;20087;-76
2021/12/06 04:40:54;;;;;;;21.42;12.85;;;;;;;1.75;100.00;99104.25;5073033;28;20049;-75
2021/12/06 04:43:22;;;;;;;19.23;12.45;;;;;;;1.71;100.00;99106.13;5073014;28;20040;-74
2021/12/06 04:45:50;;;;;;;21.20;12.90;;;;;;;1.82;100.00;99116.19;5072804;28;20040;-74
2021/12/06 04:48:18;;;;;;;25.15;14.55;;;;;;;1.86;100.00;99116.00;5073128;28;20051;-74
2021/12/06 04:50:50;;;;;;;27.45;15.20;;;;;;;1.90;100.00;99114.09;5072675;28;20045;-75
2021/12/06 04:53:22;;;;;;;30.35;16.75;;;;;;;1.84;100.00;99123.09;5072784;28;20048;-75
2021/12/06 04:55:54;;;;;;;33.17;17.42;;;;;;;1.69;100.00;99129.84;5073089;28;20048;-76
2021/12/06 04:58:25;;;;;;;31.80;16.88;;;;;;;1.77;100.00;99118.16;5073575;28;20379;-75
2021/12/06 05:01:03;;;;;;;27.25;14.68;;;;;;;1.82;100.00;99132.81;5072810;28;20041;-75
2021/12/06 05:03:34;;;;;;;22.15;12.82;;;;;;;1.61;100.00;99137.19;5072710;28;20045;-75
2021/12/06 05:06:08;;;;;;;20.13;11.65;;;;;;;1.59;100.00;99143.44;5072993;28;20047;-74
2021/12/06 05:08:40;;;;;;;18.88;11.18;;;;;;;1.67;100.00;99144.00;5075260;28;20051;-78
2021/12/06 05:11:09;;;;;;;20.42;11.63;;;;;;;1.67;100.00;99147.47;5076834;28;20440;-73
2021/12/06 05:13:41;;;;;;;17.50;10.63;;;;;;;1.58;100.00;99160.13;5076619;28;20044;-74
2021/12/06 05:16:09;;;;;;;16.75;9.90;;;;;;;1.67;100.00;99165.88;5077038;28;20090;-75
2021/12/06 05:18:38;;;;;;;16.30;9.43;;;;;;;1.72;100.00;99163.88;5076433;28;20143;-77
2021/12/06 05:21:07;;;;;;;14.43;9.32;;;;;;;1.69;100.00;99169.28;5076914;28;20094;-76
2021/12/06 05:23:36;;;;;;;14.48;9.23;;;;;;;1.58;100.00;99173.28;5076800;28;20033;-75
2021/12/06 05:26:05;;;;;;;13.77;8.80;;;;;;;1.62;100.00;99175.72;5076770;28;20048;-75
2021/12/06 05:28:40;;;;;;;12.70;7.93;;;;;;;1.64;100.00;99173.00;5076823;28;20044;-77
2021/12/06 05:31:14;;;;;;;14.15;8.85;;;;;;;1.57;100.00;99177.69;5076812;28;20048;-75
2021/12/06 05:33:46;;;;;;;12.88;8.15;;;;;;;1.62;100.00;99178.34;5076353;28;20044;-75
2021/12/06 05:36:16;;;;;;;15.20;9.35;;;;;;;1.63;100.00;99184.44;5076575;28;20135;-75
2021/12/06 05:38:45;;;;;;;14.77;9.10;;;;;;;1.55;100.00;99182.16;5076074;28;20110;-73
2021/12/06 05:41:13;;;;;;;15.02;9.13;;;;;;;1.59;100.00;99186.34;5076349;28;20045;-76
2021/12/06 05:43:41;;;;;;;15.55;9.73;;;;;;;1.52;100.00;99182.25;5076115;28;20048;-76
2021/12/06 05:46:10;;;;;;;18.05;10.32;;;;;;;1.46;100.00;99171.16;5076099;28;20052;-75
2021/12/06 05:48:38;;;;;;;17.08;10.20;;;;;;;1.59;100.00;99175.84;5075249;28;20056;-77
2021/12/06 05:51:08;;;;;;;17.88;10.57;;;;;;;1.47;100.00;99167.59;5076065;28;20147;-76
2021/12/06 05:53:37;;;;;;;19.15;10.80;;;;;;;1.51;100.00;99177.91;5076197;28;20044;-75
2021/12/06 05:56:06;;;;;;;19.77;10.43;;;;;;;1.55;100.00;99181.28;5076321;28;20040;-76
2021/12/06 05:58:36;;;;;;;17.40;10.35;;;;;;;1.57;100.00;99185.56;5075968;28;20080;-76
2021/12/06 06:01:05;;;;;;;17.95;10.13;;;;;;;1.49;100.00;99178.91;5075873;28;20048;-76
2021/12/06 06:03:34;;;;;;;16.08;9.20;;;;;;;1.65;100.00;99180.84;5076005;28;20040;-73
2021/12/06 06:06:03;;;;;;;15.23;9.27;;;;;;;1.62;100.00;99182.75;5075397;28;20064;-72
2021/12/06 06:08:31;;;;;;;16.00;10.60;;;;;;;1.54;100.00;99190.94;5075490;28;20066;-71
2021/12/06 06:11:01;;;;;;;16.00;10.07;;;;;;;1.55;100.00;99192.66;5075479;28;20040;-71
2021/12/06 06:13:29;;;;;;;16.65;9.98;;;;;;;1.59;100.00;99199.50;5075824;28;20068;-71
2021/12/06 06:15:58;;;;;;;16.80;9.32;;;;;;;1.61;100.00;99192.41;5075334;28;20037;-71
2021/12/06 06:18:26;;;;;;;16.83;9.80;;;;;;;1.50;100.00;99199.00;5075591;28;20437;-72
2021/12/06 06:20:56;;;;;;;16.13;9.63;;;;;;;1.60;100.00;99200.34;5074272;28;20044;-71
2021/12/06 06:23:26;;;;;;;16.58;9.75;;;;;;;1.64;100.00;99196.66;5075707;28;20041;-72
2021/12/06 06:25:54;;;;;;;15.48;9.63;;;;;;;1.54;100.00;99192.69;5075180;28;20194;-70
2021/12/06 06:28:24;;;;;;;15.40;10.05;;;;;;;1.61;100.00;99200.28;5075250;28;20044;-72
2021/12/06 06:30:52;;;;;;;16.23;10.15;;;;;;;1.63;100.00;99203.69;5074844;28;20102;-71
2021/12/06 06:33:26;;;;;;;15.80;10.02;;;;;;;1.59;100.00;99206.53;5075310;28;20047;-71
2021/12/06 06:35:56;;;;;;;17.25;10.85;;;;;;;1.62;100.00;99215.13;5075351;28;20052;-71
2021/12/06 06:38:25;;;;;;;16.77;11.13;;;;;;;1.75;100.00;99215.50;5074922;28;20059;-71
2021/12/06 06:40:53;;;;;;;19.52;11.13;;;;;;;1.75;100.00;99217.28;5075388;28;20044;-72
2021/12/06 06:43:25;;;;;;;19.38;11.93;;;;;;;1.91;100.00;99226.25;5075213;28;20037;-72
2021/12/06 06:45:54;;;;;;;18.58;11.35;;;;;;;1.73;100.00;99228.69;5074905;28;20073;-71
2021/12/06 06:48:23;;;;;;;19.35;11.50;;;;;;;1.69;100.00;99239.41;5075122;28;20055;-72
2021/12/06 06:50:51;;;;;;;18.60;11.45;;;;;;;1.82;100.00;99237.13;5074914;28;20048;-73
2021/12/06 06:53:19;;;;;;;20.67;11.60;;;;;;;1.81;100.00;99241.53;5074182;28;20091;-72
2021/12/06 06:55:48;;;;;;;19.50;12.05;;;;;;;1.93;100.00;99240.19;5075007;28;20044;-72
2021/12/06 06:58:16;;;;;;;20.15;11.52;;;;;;;1.92;100.00;99249.00;5075133;28;20048;-73
2021/12/06 07:00:46;;;;;;;19.60;10.95;;;;;;;1.73;100.00;99239.22;5075069;28;20048;-72
2021/12/06 07:03:17;;;;;;;19.52;11.38;;;;;;;1.84;100.00;99251.09;5074817;28;20044;-72
2021/12/06 07:05:50;;;;;;;18.50;11.73;;;;;;;1.73;100.00;99259.38;5074767;28;20048;-76
2021/12/06 07:08:18;;;;;;;20.20;12.10;;;;;;;1.83;100.00;99267.75;5074913;28;20052;-71
2021/12/06 07:10:51;;;;;;;19.58;11.68;;;;;;;1.91;100.00;99268.31;5074645;28;20040;-76
2021/12/06 07:13:19;;;;;;;22.03;12.70;;;;;;;1.86;100.00;99270.28;5108153;28;20055;-72
2021/12/06 07:15:50;;;;;;;20.77;12.43;;;;;;;1.92;100.00;99275.28;5074619;28;20044;-76
2021/12/06 07:18:19;;;;;;;20.60;12.15;;;;;;;2.03;100.00;99275.72;5074937;28;20053;-72
2021/12/06 07:20:47;;;;;;;19.50;11.75;;;;;;;2.15;100.00;99283.13;5074581;28;20044;-73
2021/12/06 07:23:16;;;;;;;19.25;11.30;;;;;;;2.04;100.00;99292.38;5074522;28;20048;-72
2021/12/06 07:25:44;;;;;;;21.50;12.82;;;;;;;2.04;100.00;99295.00;5074573;28;20046;-70
2021/12/06 07:28:12;;;;;;;23.15;13.15;;;;;;;2.07;100.00;99295.72;5073353;28;20059;-69
2021/12/06 07:30:41;;;;;;;20.85;12.68;;;;;;;2.01;100.00;99290.69;5073971;28;20044;-70
2021/12/06 07:33:10;;;;;;;21.95;12.32;;;;;;;2.09;100.00;99293.88;5075349;28;20070;-70
2021/12/06 07:35:39;;;;;;;22.63;12.93;;;;;;;2.09;100.00;99296.50;5074316;28;20051;-70
2021/12/06 07:38:07;;;;;;;24.98;13.57;;;;;;;1.99;100.00;99289.91;5073686;28;20037;-71
2021/12/06 07:40:36;;;;;;;23.42;13.20;;;;;;;2.08;100.00;99297.44;5074091;28;20043;-70
2021/12/06 07:43:04;;;;;;;24.02;13.38;;;;;;;2.02;100.00;99297.66;5073917;28;20044;-71
2021/12/06 07:45:33;;;;;;;22.15;12.85;;;;;;;2.04;100.00;99303.75;5073965;28;20044;-70
2021/12/06 07:48:01;;;;;;;27.15;13.18;;;;;;;2.10;100.00;99295.59;5074689;28;20067;-70
2021/12/06 07:50:30;;;;;;;24.63;13.70;;;;;;;2.19;100.00;99302.25;5074175;28;20040;-70
2021/12/06 07:52:59;;;;;;;25.35;14.07;;;;;;;2.05;100.00;99294.94;5073787;28;20045;-71
2021/12/06 07:55:31;;;;;;;25.80;14.20;;;;;;;2.16;100.00;99295.34;5074087;28;20044;-69
2021/12/06 07:57:59;;;;;;;25.42;14.02;;;;;;;2.21;100.00;99301.25;5073501;28;20048;-70
2021/12/06 08:00:32;;;;;;;25.23;13.80;;;;;;;2.21;100.00;99298.63;5073834;28;20062;-71
2021/12/06 08:03:06;;;;;;;24.45;13.95;;;;;;;2.22;100.00;99295.09;5073825;28;20045;-71
2021/12/06 08:05:37;;;;;;;27.25;14.82;;;;;;;2.12;100.00;99293.75;5072974;28;20098;-69
2021/12/06 08:08:09;;;;;;;26.77;14.60;;;;;;;2.12;100.00;99298.16;5073788;28;20045;-69
2021/12/06 08:10:43;;;;;;;26.75;14.85;;;;;;;2.12;100.00;99296.38;5073598;28;20041;-67
2021/12/06 08:13:13;;;;;;;27.67;15.45;;;;;;;2.23;100.00;99317.88;5073622;28;20139;-68
2021/12/06 08:15:42;;;;;;;27.55;14.27;;;;;;;2.28;100.00;99313.25;5073597;28;20052;-67
2021/12/06 08:18:11;;;;;;;27.88;15.77;;;;;;;2.22;100.00;99310.88;5073050;28;20040;-67
2021/12/06 08:20:43;;;;;;;28.48;15.85;;;;;;;2.30;100.00;99314.03;5073063;28;20040;-69
2021/12/06 08:23:12;;;;;;;26.23;14.45;;;;;;;2.32;100.00;99310.47;5073276;28;20075;-68
2021/12/06 08:25:42;;;;;;;29.67;15.90;;;;;;;2.27;100.00;99311.53;5073354;28;20072;-68
2021/12/06 08:28:10;;;;;;;28.65;15.63;;;;;;;2.20;100.00;99309.22;5073013;28;20041;-68
2021/12/06 08:30:39;;;;;;;31.58;16.13;;;;;;;2.29;100.00;99314.97;5073051;28;20056;-68
2021/12/06 08:33:08;;;;;;;32.15;16.40;;;;;;;2.27;100.00;99324.69;5072984;28;20045;-68
2021/12/06 08:35:45;;;;;;;33.42;16.65;;;;;;;2.15;100.00;99325.22;5073168;28;20037;-68
2021/12/06 08:38:16;;;;;;;36.00;17.00;;;;;;;2.15;100.00;99327.00;5072629;28;20044;-69
2021/12/06 08:40:45;;;;;;;32.08;17.40;;;;;;;2.12;100.00;99321.81;5073556;28;20044;-67
2021/12/06 08:43:19;;;;;;;34.28;18.08;;;;;;;2.12;100.00;99320.03;5072719;28;20059;-68
2021/12/06 08:45:52;;;;;;;35.53;17.02;;;;;;;2.13;100.00;99321.78;5073202;28;20048;-68
2021/12/06 08:48:22;;;;;;;35.17;17.70;;;;;;;2.18;100.00;99332.97;5073352;28;20111;-68
2021/12/06 08:50:53;;;;;;;37.78;18.88;;;;;;;2.26;100.00;99328.25;5073032;28;20093;-68
2021/12/06 08:53:24;;;;;;;36.33;19.05;;;;;;;2.30;100.00;99324.56;5073236;28;20045;-68
2021/12/06 08:55:54;;;;;;;36.58;17.88;;;;;;;2.36;100.00;99327.88;5072832;28;20041;-68
2021/12/06 08:58:22;;;;;;;36.50;18.98;;;;;;;2.37;100.00;99337.47;5072932;28;20044;-68
2021/12/06 09:00:50;;;;;;;37.75;19.13;;;;;;;2.55;100.00;99334.94;5073078;28;20048;-68
2021/12/06 09:03:20;;;;;;;35.70;18.63;;;;;;;2.56;100.00;99336.66;5072863;28;20033;-68
2021/12/06 09:05:54;;;;;;;40.63;20.15;;;;;;;2.60;100.00;99340.00;5073137;28;20044;-68
2021/12/06 09:08:24;;;;;;;42.55;19.50;;;;;;;2.60;100.00;99342.63;5073144;28;20036;-67
2021/12/06 09:10:53;;;;;;;38.97;20.15;;;;;;;2.56;100.00;99341.91;5072995;28;20115;-67
2021/12/06 09:13:24;;;;;;;38.13;19.85;;;;;;;2.63;100.00;99329.34;5072853;28;20549;-68
2021/12/06 09:15:53;;;;;;;33.22;16.80;;;;;;;2.70;100.00;99337.84;5072808;28;20482;-68
2021/12/06 09:18:22;;;;;;;40.25;19.83;;;;;;;2.71;100.00;99323.78;5073056;28;20068;-68
2021/12/06 09:20:56;;;;;;;40.15;19.40;;;;;;;2.86;100.00;99328.34;5072897;28;20048;-68
2021/12/06 09:23:27;;;;;;;39.00;19.02;;;;;;;2.85;100.00;99321.38;5072689;28;20064;-68
2021/12/06 09:25:57;;;;;;;37.30;18.40;;;;;;;2.81;100.00;99314.56;5072438;28;20041;-68
2021/12/06 09:28:28;;;;;;;39.47;20.27;;;;;;;2.75;100.00;99310.38;5072570;28;20090;-68
2021/12/06 09:30:56;;;;;;;36.45;19.23;;;;;;;2.79;100.00;99306.69;5072470;28;20127;-67
2021/12/06 09:33:25;;;;;;;41.05;20.80;;;;;;;2.69;100.00;99305.38;5073091;28;20044;-67
2021/12/06 09:35:58;;;;;;;40.00;20.23;;;;;;;2.75;100.00;99306.91;5072436;28;20051;-67
2021/12/06 09:38:34;;;;;;;40.50;21.05;;;;;;;2.56;100.00;99298.94;5072682;28;20057;-68
2021/12/06 09:41:05;;;;;;;35.38;19.20;;;;;;;2.75;100.00;99323.56;5072560;28;20436;-68
2021/12/06 09:43:38;;;;;;;32.30;18.05;;;;;;;2.70;100.00;99307.13;5072840;28;20047;-68
2021/12/06 09:46:07;;;;;;;37.60;19.27;;;;;;;2.75;100.00;99318.28;5072156;28;20051;-68
2021/12/06 09:48:37;;;;;;;35.15;18.85;;;;;;;2.76;100.00;99305.97;5072774;28;20098;-67
2021/12/06 09:51:10;;;;;;;35.95;19.33;;;;;;;2.88;100.00;99313.34;5073800;28;20402;-68
2021/12/06 09:53:42;;;;;;;32.70;17.77;;;;;;;3.09;100.00;99304.50;5073281;28;20045;-68
2021/12/06 09:56:15;;;;;;;28.90;16.40;;;;;;;3.30;100.00;99301.81;5076073;28;20060;-68
2021/12/06 09:58:45;;;;;;;31.33;16.17;;;;;;;3.26;100.00;99298.47;5076080;28;20040;-68
2021/12/06 10:01:16;;;;;;;32.05;17.10;;;;;;;3.27;100.00;99294.91;5076110;28;20041;-67
2021/12/06 10:03:47;;;;;;;27.90;15.27;;;;;;;3.32;100.00;99295.56;5076250;28;20094;-68
2021/12/06 10:06:18;;;;;;;28.75;15.15;;;;;;;3.34;100.00;99296.34;5075960;28;20037;-68
2021/12/06 10:08:50;;;;;;;22.85;13.85;;;;;;;3.35;100.00;99282.22;5076479;28;20048;-68
2021/12/06 10:11:20;;;;;;;22.05;13.15;;;;;;;3.44;100.00;99288.84;5075584;28;20044;-68
2021/12/06 10:13:49;;;;;;;22.95;13.25;;;;;;;3.32;100.00;99289.44;5076556;28;20504;-68
2021/12/06 10:16:19;;;;;;;24.08;13.93;;;;;;;3.54;100.00;99278.75;5075864;28;20110;-68
2021/12/06 10:18:50;;;;;;;23.88;13.57;;;;;;;3.56;100.00;99275.09;5075931;28;20048;-68
2021/12/06 10:21:23;;;;;;;23.02;13.73;;;;;;;3.51;100.00;99268.34;5076292;28;20076;-68
2021/12/06 10:23:52;;;;;;;23.23;13.20;;;;;;;3.51;100.00;99268.34;5076735;28;20473;-68
2021/12/06 10:26:24;;;;;;;25.08;13.88;;;;;;;3.47;100.00;99264.13;5075525;28;20486;-68
2021/12/06 10:28:57;;;;;;;21.73;12.30;;;;;;;3.44;100.00;99268.63;5075815;28;20040;-68
2021/12/06 10:31:27;;;;;;;26.55;14.32;;;;;;;3.38;100.00;99266.28;5075570;28;20091;-68
2021/12/06 10:33:56;;;;;;;22.75;13.57;;;;;;;3.32;100.00;99274.47;5075494;28;20119;-68
2021/12/06 10:36:27;;;;;;;23.80;13.05;;;;;;;3.47;100.00;99279.94;5075383;28;20040;-68
2021/12/06 10:39:03;;;;;;;26.52;14.85;;;;;;;3.42;100.00;99283.66;5075516;28;20382;-68
2021/12/06 10:41:32;;;;;;;24.67;13.02;;;;;;;3.59;100.00;99297.84;5075564;28;20394;-68
2021/12/06 10:44:04;;;;;;;23.38;13.70;;;;;;;3.65;100.00;99300.19;5075300;28;20048;-68
2021/12/06 10:46:34;;;;;;;22.58;13.27;;;;;;;3.76;100.00;99307.59;5075429;28;20041;-67
2021/12/06 10:49:07;;;;;;;23.77;13.52;;;;;;;3.81;100.00;99309.09;5075399;28;20440;-67
2021/12/06 10:51:37;;;;;;;20.35;12.75;;;;;;;3.91;100.00;99315.63;5074123;28;20048;-68
2021/12/06 10:54:09;;;;;;;21.25;12.93;;;;;;;3.87;100.00;99319.38;5075174;28;20470;-68
2021/12/06 10:56:43;;;;;;;22.35;13.48;;;;;;;3.87;100.00;99327.28;5074955;28;20037;-68
2021/12/06 10:59:13;;;;;;;21.55;13.13;;;;;;;3.94;100.00;99341.88;5075196;28;20041;-68
2021/12/06 11:01:42;;;;;;;22.98;13.00;;;;;;;4.09;100.00;99335.00;5075247;28;20090;-68
2021/12/06 11:04:14;;;;;;;18.48;9.63;;;;;;;4.09;100.00;99342.06;5074893;28;20050;-68
2021/12/06 11:06:48;;;;;;;20.98;12.40;;;;;;;3.79;100.00;99347.03;5074558;28;20045;-68
2021/12/06 11:09:20;;;;;;;18.67;11.80;;;;;;;3.70;100.00;99341.25;5074955;28;20135;-68
2021/12/06 11:11:55;;;;;;;20.13;12.05;;;;;;;3.81;100.00;99339.88;5073795;28;20059;-68
2021/12/06 11:14:25;;;;;;;21.85;13.10;;;;;;;3.86;100.00;99328.22;5074862;28;20043;-67
2021/12/06 11:16:56;;;;;;;20.08;11.32;;;;;;;3.70;100.00;99338.63;5074597;28;20052;-67
2021/12/06 11:19:26;;;;;;;20.38;11.73;;;;;;;3.68;100.00;99351.03;5074540;28;20128;-67
2021/12/06 11:21:59;;;;;;;22.50;13.02;;;;;;;3.69;100.00;99365.06;5074767;28;20421;-67
2021/12/06 11:24:29;;;;;;;16.73;9.52;;;;;;;3.72;100.00;99370.19;5074442;28;20055;-68
2021/12/06 11:27:02;;;;;;;21.55;11.73;;;;;;;3.52;100.00;99373.75;5074526;28;20032;-68
2021/12/06 11:29:35;;;;;;;18.00;10.18;;;;;;;3.47;100.00;99372.22;5074472;28;20068;-68
2021/12/06 11:32:07;;;;;;;22.63;12.82;;;;;;;3.57;100.00;99377.03;5074498;28;20047;-68
2021/12/06 11:34:42;;;;;;;25.70;12.73;;;;;;;3.74;100.00;99376.25;5074308;28;20098;-68
2021/12/06 11:37:17;;;;;;;19.23;11.55;;;;;;;3.86;100.00;99369.53;5074331;28;20439;-68